createdAt,value
2022-07-28T00:00:17.777Z,1009.19
2022-07-28T00:05:21.952Z,1009.16
2022-07-28T00:10:26.129Z,1009.13
2022-07-28T00:15:30.297Z,1009.16
2022-07-28T00:20:34.448Z,1008.97
2022-07-28T00:25:38.567Z,1009.01
2022-07-28T00:30:42.767Z,1009.08
2022-07-28T00:35:48.509Z,1008.96
2022-07-28T00:40:51.066Z,1008.87
2022-07-28T00:45:55.249Z,1008.81
2022-07-28T00:50:59.387Z,1008.83
2022-07-28T00:56:06.164Z,1008.74
2022-07-28T01:01:07.733Z,1008.84
2022-07-28T01:06:10.017Z,1008.75
2022-07-28T01:11:14.139Z,1008.77
2022-07-28T01:16:16.531Z,1008.76
2022-07-28T01:21:20.608Z,1008.72
2022-07-28T01:26:24.713Z,1008.64
2022-07-28T01:31:28.925Z,1008.60
2022-07-28T01:36:33.086Z,1008.56
2022-07-28T01:41:37.220Z,1008.61
2022-07-28T01:46:41.588Z,1008.62
2022-07-28T01:51:45.517Z,1008.55
2022-07-28T01:56:49.687Z,1008.61
2022-07-28T02:01:53.913Z,1008.66
2022-07-28T02:06:58.224Z,1008.60
2022-07-28T02:12:02.191Z,1008.56
2022-07-28T02:17:06.356Z,1008.54
2022-07-28T02:22:10.494Z,1008.48
2022-07-28T02:27:12.796Z,1008.40
2022-07-28T02:32:27.921Z,1008.32
2022-07-28T02:37:21.111Z,1008.40
2022-07-28T02:42:25.230Z,1008.28
2022-07-28T02:47:29.399Z,1008.15
2022-07-28T02:52:33.752Z,1008.22
2022-07-28T02:57:37.749Z,1008.11
2022-07-28T03:02:39.979Z,1008.22
2022-07-28T03:07:51.194Z,1008.26
2022-07-28T03:12:46.485Z,1008.20
2022-07-28T03:17:50.577Z,1008.10
2022-07-28T03:22:54.779Z,1008.18
2022-07-28T03:27:58.937Z,1008.18
2022-07-28T03:33:03.081Z,1008.19
2022-07-28T03:38:07.218Z,1008.26
2022-07-28T03:43:11.421Z,1008.23
2022-07-28T03:48:15.548Z,1008.18
2022-07-28T03:53:19.719Z,1008.25
2022-07-28T03:58:26.221Z,1008.24
2022-07-28T04:03:42.755Z,1008.22
2022-07-28T04:08:32.223Z,1008.26
2022-07-28T04:13:36.368Z,1008.23
2022-07-28T04:18:40.547Z,1008.22
2022-07-28T04:23:44.720Z,1008.21
2022-07-28T04:28:48.866Z,1008.08
2022-07-28T04:33:53.036Z,1008.12
2022-07-28T04:38:57.165Z,1008.05
2022-07-28T04:44:01.381Z,1008.08
2022-07-28T04:49:05.580Z,1008.08
2022-07-28T04:54:09.658Z,1008.16
2022-07-28T04:59:11.942Z,1008.18
2022-07-28T05:04:16.409Z,1008.24
2022-07-28T05:09:18.362Z,1008.16
2022-07-28T05:14:22.515Z,1008.19
2022-07-28T05:19:26.648Z,1008.21
2022-07-28T05:24:30.836Z,1008.14
2022-07-28T05:29:37.574Z,1008.15
2022-07-28T05:34:39.410Z,1008.12
2022-07-28T05:39:43.322Z,1008.20
2022-07-28T05:44:47.506Z,1008.17
2022-07-28T05:49:51.658Z,1008.20
2022-07-28T05:54:55.818Z,1008.15
2022-07-28T05:59:59.948Z,1008.17
2022-07-28T06:05:04.115Z,1008.17
2022-07-28T06:10:08.259Z,1008.20
2022-07-28T06:15:12.460Z,1008.23
2022-07-28T06:20:16.587Z,1008.26
2022-07-28T06:30:24.910Z,1008.32
2022-07-28T06:35:29.080Z,1008.21
2022-07-28T06:40:33.251Z,1008.29
2022-07-28T06:45:37.607Z,1008.32
2022-07-28T06:50:41.582Z,1008.39
2022-07-28T06:55:49.922Z,1008.32
2022-07-28T07:00:48.119Z,1008.40
2022-07-28T07:05:53.122Z,1008.42
2022-07-28T07:10:54.443Z,1008.41
2022-07-28T07:15:58.661Z,1008.47
2022-07-28T07:21:02.737Z,1008.46
2022-07-28T07:26:06.932Z,1008.44
2022-07-28T07:31:11.140Z,1008.44
2022-07-28T07:36:15.201Z,1008.30
2022-07-28T07:41:19.387Z,1008.32
2022-07-28T07:46:23.626Z,1008.36
2022-07-28T07:51:27.683Z,1008.32
2022-07-28T07:56:33.995Z,1008.28
2022-07-28T08:01:36.093Z,1008.27
2022-07-28T08:06:40.274Z,1008.20
2022-07-28T08:11:44.326Z,1008.18
2022-07-28T08:21:52.687Z,1008.11
2022-07-28T08:26:56.818Z,1008.20
2022-07-28T08:32:00.951Z,1008.21
2022-07-28T08:37:05.178Z,1008.23
2022-07-28T08:42:09.363Z,1008.16
2022-07-28T08:47:13.441Z,1008.23
2022-07-28T08:52:17.615Z,1008.26
2022-07-28T08:57:21.988Z,1008.32
2022-07-28T09:02:24.076Z,1008.38
2022-07-28T09:12:32.365Z,1008.36
2022-07-28T09:17:34.626Z,1008.41
2022-07-28T09:22:38.823Z,1008.35
2022-07-28T09:27:42.968Z,1008.34
2022-07-28T09:32:47.133Z,1008.41
2022-07-28T09:37:51.270Z,1008.28
2022-07-28T09:42:55.448Z,1008.25
2022-07-28T09:47:59.781Z,1008.38
2022-07-28T09:53:03.729Z,1008.19
2022-07-28T09:58:07.905Z,1008.16
2022-07-28T10:03:12.307Z,1008.14
2022-07-28T10:08:16.222Z,1008.15
2022-07-28T10:13:20.391Z,1008.17
2022-07-28T10:18:24.569Z,1008.18
2022-07-28T10:23:28.730Z,1008.30
2022-07-28T10:28:32.852Z,1008.15
2022-07-28T10:33:37.002Z,1008.03
2022-07-28T10:38:41.148Z,1007.95
2022-07-28T10:43:45.402Z,1008.04
2022-07-28T10:48:49.554Z,1007.97
2022-07-28T10:53:54.623Z,1008.02
2022-07-28T10:59:02.780Z,1007.86
2022-07-28T11:04:02.064Z,1007.93
2022-07-28T11:09:04.245Z,1007.83
2022-07-28T11:14:08.422Z,1007.87
2022-07-28T11:19:42.401Z,1007.77
2022-07-28T11:24:18.064Z,1007.73
2022-07-28T11:29:19.032Z,1007.61
2022-07-28T11:34:23.134Z,1007.64
2022-07-28T11:39:25.432Z,1007.57
2022-07-28T11:44:29.833Z,1007.52
2022-07-28T11:49:34.070Z,1007.55
2022-07-28T11:54:37.903Z,1007.44
2022-07-28T11:59:42.062Z,1007.38
2022-07-28T12:04:46.224Z,1007.28
2022-07-28T12:09:50.335Z,1007.29
2022-07-28T12:14:54.517Z,1007.26
2022-07-28T12:19:58.667Z,1007.24
2022-07-28T12:25:02.851Z,1007.20
2022-07-28T12:30:06.996Z,1007.07
2022-07-28T12:35:11.176Z,1007.07
2022-07-28T12:40:15.362Z,1007.00
2022-07-28T12:45:19.475Z,1007.04
2022-07-28T12:50:23.625Z,1006.96
2022-07-28T12:55:27.940Z,1006.86
2022-07-28T13:00:31.920Z,1006.81
2022-07-28T13:05:36.128Z,1006.85
2022-07-28T13:10:40.288Z,1006.77
2022-07-28T13:15:44.405Z,1006.81
2022-07-28T13:20:48.620Z,1006.84
2022-07-28T13:25:50.893Z,1006.78
2022-07-28T13:30:55.024Z,1006.65
2022-07-28T13:35:59.432Z,1006.65
2022-07-28T13:41:03.343Z,1006.58
2022-07-28T13:46:07.595Z,1006.69
2022-07-28T13:51:11.684Z,1006.59
2022-07-28T13:56:15.917Z,1006.53
2022-07-28T14:01:19.994Z,1006.40
2022-07-28T14:06:24.126Z,1006.40
2022-07-28T14:11:28.279Z,1006.38
2022-07-28T14:16:32.511Z,1006.35
2022-07-28T14:21:36.601Z,1006.37
2022-07-28T14:26:40.743Z,1006.25
2022-07-28T14:31:45.016Z,1006.30
2022-07-28T14:36:49.092Z,1006.29
2022-07-28T14:41:53.240Z,1006.21
2022-07-28T14:46:57.487Z,1006.20
2022-07-28T14:52:01.583Z,1006.18
2022-07-28T14:57:05.949Z,1006.23
2022-07-28T15:02:10.049Z,1006.09
2022-07-28T15:07:14.028Z,1006.16
2022-07-28T15:12:16.327Z,1006.10
2022-07-28T15:17:20.434Z,1006.13
2022-07-28T15:22:26.329Z,1006.18
2022-07-28T15:27:33.242Z,1006.07
2022-07-28T15:32:32.940Z,1005.99
2022-07-28T15:37:37.392Z,1006.06
2022-07-28T15:42:41.269Z,1006.04
2022-07-28T15:47:45.419Z,1005.95
2022-07-28T15:52:49.581Z,1005.90
2022-07-28T15:57:54.025Z,1005.92
2022-07-28T16:02:57.954Z,1005.88
2022-07-28T16:08:02.030Z,1005.90
2022-07-28T16:13:06.225Z,1005.94
2022-07-28T16:18:10.385Z,1005.94
2022-07-28T16:23:14.559Z,1005.82
2022-07-28T16:28:18.693Z,1005.84
2022-07-28T16:33:22.825Z,1005.91
2022-07-28T16:38:26.970Z,1005.84
2022-07-28T16:43:31.154Z,1005.82
2022-07-28T16:48:35.610Z,1005.74
2022-07-28T16:53:39.644Z,1005.68
2022-07-28T16:58:41.734Z,1005.65
2022-07-28T17:03:45.918Z,1005.64
2022-07-28T17:08:48.209Z,1005.68
2022-07-28T17:13:52.322Z,1005.72
2022-07-28T17:18:54.588Z,1005.75
2022-07-28T17:23:58.761Z,1005.73
2022-07-28T17:29:01.034Z,1005.86
2022-07-28T17:34:05.233Z,1005.83
2022-07-28T17:39:09.374Z,1005.84
2022-07-28T17:44:15.804Z,1005.79
2022-07-28T17:49:17.772Z,1005.80
2022-07-28T17:54:21.819Z,1005.79
2022-07-28T17:59:25.999Z,1005.81
2022-07-28T18:04:30.154Z,1005.75
2022-07-28T18:09:34.297Z,1005.78
2022-07-28T18:14:38.478Z,1005.82
2022-07-28T18:19:45.509Z,1005.81
2022-07-28T18:24:46.790Z,1005.84
2022-07-28T18:29:50.957Z,1005.83
2022-07-28T18:34:55.122Z,1005.82
2022-07-28T18:39:59.232Z,1005.89
2022-07-28T18:45:03.410Z,1005.94
2022-07-28T18:50:07.795Z,1005.88
2022-07-28T18:55:11.722Z,1005.94
2022-07-28T19:05:20.088Z,1005.85
2022-07-28T19:10:24.225Z,1005.88
2022-07-28T19:15:28.424Z,1005.97
2022-07-28T19:20:30.654Z,1005.97
2022-07-28T19:25:32.913Z,1006.01
2022-07-28T19:30:37.129Z,1006.06
2022-07-28T19:35:41.208Z,1006.17
2022-07-28T19:40:45.365Z,1006.18
2022-07-28T19:45:49.577Z,1006.24
2022-07-28T19:50:53.719Z,1006.33
2022-07-28T19:55:57.899Z,1006.37
2022-07-28T20:01:02.033Z,1006.47
2022-07-28T20:06:06.161Z,1006.42
2022-07-28T20:11:10.325Z,1006.53
2022-07-28T20:16:14.527Z,1006.45
2022-07-28T20:21:18.658Z,1006.39
2022-07-28T20:26:23.989Z,1006.45
2022-07-28T20:31:27.098Z,1006.47
2022-07-28T20:36:31.135Z,1006.42
2022-07-28T20:41:35.285Z,1006.50
2022-07-28T20:46:39.440Z,1006.50
2022-07-28T20:51:50.909Z,1006.55
2022-07-28T20:56:47.791Z,1006.57
2022-07-28T21:01:52.006Z,1006.71
2022-07-28T21:07:00.777Z,1006.68
2022-07-28T21:11:58.387Z,1006.66
2022-07-28T21:17:02.569Z,1006.56
2022-07-28T21:22:06.692Z,1006.57
2022-07-28T21:27:10.857Z,1006.48
2022-07-28T21:32:15.002Z,1006.56
2022-07-28T21:37:19.169Z,1006.42
2022-07-28T21:42:23.284Z,1006.39
2022-07-28T21:47:27.445Z,1006.37
2022-07-28T21:52:31.610Z,1006.42
2022-07-28T21:57:35.760Z,1006.41
2022-07-28T22:02:40.882Z,1006.44
2022-07-28T22:07:44.125Z,1006.48
2022-07-28T22:12:48.262Z,1006.44
2022-07-28T22:17:52.414Z,1006.53
2022-07-28T22:22:56.609Z,1006.52
2022-07-28T22:28:00.741Z,1006.58
2022-07-28T22:33:04.910Z,1006.59
2022-07-28T22:38:09.092Z,1006.54
2022-07-28T22:43:13.212Z,1006.58
2022-07-28T22:48:17.417Z,1006.64
2022-07-28T22:53:19.650Z,1006.60
2022-07-28T22:58:23.838Z,1006.60
2022-07-28T23:03:26.364Z,1006.63
2022-07-28T23:08:30.228Z,1006.63
2022-07-28T23:13:32.537Z,1006.63
2022-07-28T23:18:36.685Z,1006.56
2022-07-28T23:23:40.827Z,1006.53
2022-07-28T23:28:44.970Z,1006.53
2022-07-28T23:33:55.316Z,1006.50
2022-07-28T23:38:53.318Z,1006.44
2022-07-28T23:43:57.483Z,1006.31
2022-07-28T23:49:01.669Z,1006.40
2022-07-28T23:54:05.793Z,1006.33
2022-07-28T23:59:13.714Z,1006.20
